Time;durP1;ratioP1;P1;durP2;ratioP2;P2;SDS_P1;SDS_P2;PMS_P1;PMS_P2;Temp;Humidity;BMP_temperature;BMP_pressure;BME280_temperature;BME280_humidity;BME280_pressure;Samples;Min_cycle;Max_cycle;Signal;HPM_P1;HPM_P2
2022/04/29 00:00:34;;;;;;;9.77;5.78;;;;;;;;;;5079567;28;20046;-81
2022/04/29 00:03:01;;;;;;;12.48;6.15;;;;;;;;;;5079607;28;20357;-81
2022/04/29 00:05:27;;;;;;;8.73;5.55;;;;;;;;;;5081231;28;20041;-81
2022/04/29 00:07:53;;;;;;;15.77;6.38;;;;;;;;;;5056379;28;20040;-80
2022/04/29 00:10:20;;;;;;;12.73;6.40;;;;;;;;;;5084958;28;20069;-81
2022/04/29 00:12:47;;;;;;;10.45;6.18;;;;;;;;;;5075283;28;20048;-81
2022/04/29 00:15:14;;;;;;;16.85;7.00;;;;;;;;;;5068632;28;20260;-81
2022/04/29 00:17:40;;;;;;;14.77;6.82;;;;;;;;;;5058691;28;20383;-81
2022/04/29 00:20:07;;;;;;;13.63;7.07;;;;;;;;;;5072116;28;20044;-81
2022/04/29 00:22:33;;;;;;;16.52;7.32;;;;;;;;;;5039954;28;20079;-81
2022/04/29 00:24:59;;;;;;;15.00;6.75;;;;;;;;;;5069809;28;20389;-81
2022/04/29 00:27:26;;;;;;;16.88;7.18;;;;;;;;;;5073981;28;20040;-81
2022/04/29 00:29:52;;;;;;;18.33;7.72;;;;;;;;;;5070695;28;20048;-81
2022/04/29 00:32:18;;;;;;;18.83;7.15;;;;;;;;;;5081842;28;20044;-80
2022/04/29 00:34:44;;;;;;;18.25;7.20;;;;;;;;;;5078067;28;20095;-80
2022/04/29 00:37:10;;;;;;;17.17;7.53;;;;;;;;;;5078328;28;20044;-81
2022/04/29 00:39:37;;;;;;;16.73;7.78;;;;;;;;;;5080224;28;20044;-81
2022/04/29 00:42:12;;;;;;;13.75;6.88;;;;;;;;;;5078559;28;20040;-81
2022/04/29 00:44:40;;;;;;;13.75;8.05;;;;;;;;;;5077419;28;20040;-81
2022/04/29 00:47:06;;;;;;;15.70;7.30;;;;;;;;;;5083124;28;20048;-80
2022/04/29 00:49:33;;;;;;;15.35;6.95;;;;;;;;;;5080036;28;20408;-81
2022/04/29 00:51:59;;;;;;;16.65;7.60;;;;;;;;;;5079433;28;20051;-81
2022/04/29 00:54:31;;;;;;;16.52;7.40;;;;;;;;;;5075556;28;20543;-81
2022/04/29 00:56:58;;;;;;;16.77;7.85;;;;;;;;;;5077089;28;20036;-81
2022/04/29 00:59:43;;;;;;;15.60;7.45;;;;;;;;;;5078479;28;20066;-81
2022/04/29 01:02:10;;;;;;;18.83;7.72;;;;;;;;;;5067652;28;20056;-80
2022/04/29 01:05:06;;;;;;;16.88;6.55;;;;;;;;;;5074585;28;20514;-80
2022/04/29 01:07:33;;;;;;;20.30;7.38;;;;;;;;;;5064632;28;20152;-80
2022/04/29 01:09:59;;;;;;;20.27;7.95;;;;;;;;;;5076933;28;20077;-81
2022/04/29 01:12:26;;;;;;;14.63;6.95;;;;;;;;;;5077678;28;20052;-80
2022/04/29 01:14:56;;;;;;;16.90;6.95;;;;;;;;;;5083160;28;20041;-81
2022/04/29 01:17:22;;;;;;;18.23;7.68;;;;;;;;;;5078905;28;20361;-81
2022/04/29 01:19:49;;;;;;;15.43;7.10;;;;;;;;;;5076528;28;20066;-81
2022/04/29 01:22:15;;;;;;;15.57;6.60;;;;;;;;;;5060452;28;20493;-81
2022/04/29 01:24:41;;;;;;;12.27;7.22;;;;;;;;;;5084063;28;20040;-81
2022/04/29 01:27:11;;;;;;;17.45;7.47;;;;;;;;;;5078417;28;20032;-81
2022/04/29 01:29:41;;;;;;;14.73;7.45;;;;;;;;;;5078449;28;20487;-81
2022/04/29 01:32:11;;;;;;;15.15;6.80;;;;;;;;;;5075202;28;20044;-81
2022/04/29 01:34:37;;;;;;;17.48;7.40;;;;;;;;;;5084745;28;20121;-81
2022/04/29 01:37:04;;;;;;;15.57;7.13;;;;;;;;;;5077414;28;20044;-81
2022/04/29 01:39:31;;;;;;;17.38;7.45;;;;;;;;;;5069185;28;20090;-81
2022/04/29 01:41:57;;;;;;;13.52;7.60;;;;;;;;;;5073833;28;20036;-81
2022/04/29 01:44:23;;;;;;;16.08;7.32;;;;;;;;;;5068208;28;20045;-81
2022/04/29 01:46:49;;;;;;;12.60;6.60;;;;;;;;;;5055608;28;20530;-81
2022/04/29 01:49:16;;;;;;;12.45;7.03;;;;;;;;;;5058942;28;21503;-81
2022/04/29 01:51:42;;;;;;;15.82;7.00;;;;;;;;;;5079629;28;20108;-81
2022/04/29 01:54:11;;;;;;;20.70;7.57;;;;;;;;;;5074760;28;20044;-81
2022/04/29 01:56:40;;;;;;;14.23;7.60;;;;;;;;;;5070213;28;20045;-81
2022/04/29 01:59:06;;;;;;;17.33;8.00;;;;;;;;;;5077785;28;20120;-81
2022/04/29 02:01:34;;;;;;;17.25;7.35;;;;;;;;;;5049141;28;20512;-81
2022/04/29 02:04:01;;;;;;;11.50;5.80;;;;;;;;;;5074327;28;20048;-81
2022/04/29 02:06:27;;;;;;;13.90;6.68;;;;;;;;;;5087449;28;20040;-81
2022/04/29 02:08:53;;;;;;;9.68;5.90;;;;;;;;;;5061713;28;20075;-81
2022/04/29 02:11:20;;;;;;;12.57;6.47;;;;;;;;;;5051890;28;20041;-81
2022/04/29 02:13:46;;;;;;;13.77;6.95;;;;;;;;;;5060761;28;20036;-81
2022/04/29 02:16:13;;;;;;;16.70;6.70;;;;;;;;;;5062590;28;20044;-81
2022/04/29 02:18:39;;;;;;;17.35;7.80;;;;;;;;;;5085963;28;20036;-81
2022/04/29 02:21:06;;;;;;;13.45;6.50;;;;;;;;;;5075724;28;20069;-80
2022/04/29 02:23:32;;;;;;;18.50;7.20;;;;;;;;;;5069852;28;20040;-81
2022/04/29 02:25:58;;;;;;;15.82;7.18;;;;;;;;;;5082124;28;20048;-80
2022/04/29 02:28:24;;;;;;;14.57;6.90;;;;;;;;;;5070570;28;20140;-81
2022/04/29 02:30:50;;;;;;;13.93;6.45;;;;;;;;;;5060587;28;20590;-81
2022/04/29 02:33:17;;;;;;;13.20;5.80;;;;;;;;;;5068189;28;20060;-81
2022/04/29 02:35:43;;;;;;;12.68;6.07;;;;;;;;;;5070587;28;20036;-81
2022/04/29 02:38:09;;;;;;;14.85;6.35;;;;;;;;;;5051848;28;20321;-81
2022/04/29 02:40:35;;;;;;;10.23;5.68;;;;;;;;;;5073875;28;20037;-81
2022/04/29 02:43:01;;;;;;;16.80;6.35;;;;;;;;;;5073850;28;20044;-81
2022/04/29 02:45:27;;;;;;;14.20;6.50;;;;;;;;;;5068832;28;20033;-81
2022/04/29 02:47:53;;;;;;;13.57;6.45;;;;;;;;;;5080246;28;20080;-81
2022/04/29 02:50:19;;;;;;;10.63;6.05;;;;;;;;;;5054282;28;20042;-81
2022/04/29 02:52:45;;;;;;;14.70;6.57;;;;;;;;;;5050219;28;20070;-81
2022/04/29 02:55:11;;;;;;;11.50;5.75;;;;;;;;;;5053935;28;20076;-81
2022/04/29 02:57:37;;;;;;;10.82;5.80;;;;;;;;;;5050704;28;20442;-81
2022/04/29 03:00:04;;;;;;;11.95;5.95;;;;;;;;;;5085560;28;20047;-81
2022/04/29 03:02:30;;;;;;;14.43;7.07;;;;;;;;;;5067667;28;20083;-81
2022/04/29 03:04:56;;;;;;;11.20;6.47;;;;;;;;;;5070640;28;20036;-81
2022/04/29 03:07:22;;;;;;;15.77;5.82;;;;;;;;;;5072924;28;20037;-81
2022/04/29 03:09:48;;;;;;;14.45;6.35;;;;;;;;;;5067353;28;20040;-81
2022/04/29 03:12:15;;;;;;;11.07;6.20;;;;;;;;;;5050410;28;20482;-81
2022/04/29 03:14:41;;;;;;;14.43;7.10;;;;;;;;;;5049994;28;20118;-81
2022/04/29 03:18:18;;;;;;;12.48;6.57;;;;;;;;;;5078718;28;20585;-81
2022/04/29 03:19:53;;;;;;;13.60;5.82;;;;;;;;;;5085288;28;20037;-81
2022/04/29 03:22:19;;;;;;;13.40;6.63;;;;;;;;;;5067926;28;20392;-81
2022/04/29 03:24:46;;;;;;;13.00;7.10;;;;;;;;;;5040903;28;20488;-81
2022/04/29 03:27:12;;;;;;;15.50;6.25;;;;;;;;;;5071254;28;20055;-81
2022/04/29 03:29:38;;;;;;;11.13;6.30;;;;;;;;;;5071716;28;20072;-81
2022/04/29 03:32:04;;;;;;;12.35;5.95;;;;;;;;;;5065347;28;20089;-81
2022/04/29 03:34:30;;;;;;;11.95;6.28;;;;;;;;;;5077936;28;20127;-81
2022/04/29 03:36:56;;;;;;;13.93;6.65;;;;;;;;;;5065945;28;20044;-81
2022/04/29 03:39:22;;;;;;;14.90;6.80;;;;;;;;;;5080236;28;20040;-81
2022/04/29 03:41:48;;;;;;;15.60;7.97;;;;;;;;;;5083731;28;20044;-81
2022/04/29 03:44:14;;;;;;;13.60;6.45;;;;;;;;;;5078616;28;20483;-80
2022/04/29 03:46:40;;;;;;;13.80;5.97;;;;;;;;;;5070366;28;20442;-81
2022/04/29 03:51:51;;;;;;;12.13;6.00;;;;;;;;;;5081503;28;20052;-81
2022/04/29 03:54:17;;;;;;;14.35;7.05;;;;;;;;;;5049557;28;20041;-81
2022/04/29 03:56:44;;;;;;;14.80;6.43;;;;;;;;;;5069796;28;20036;-81
2022/04/29 03:59:11;;;;;;;13.57;7.22;;;;;;;;;;5066712;28;20036;-80
2022/04/29 04:01:37;;;;;;;16.55;8.00;;;;;;;;;;5062441;28;20510;-81
2022/04/29 04:04:03;;;;;;;16.30;6.85;;;;;;;;;;5074838;28;20071;-80
2022/04/29 04:09:14;;;;;;;16.08;7.55;;;;;;;;;;5074725;28;20507;-81
2022/04/29 04:11:41;;;;;;;16.05;8.10;;;;;;;;;;5075762;28;20123;-80
2022/04/29 04:14:08;;;;;;;16.02;8.30;;;;;;;;;;5067137;28;20162;-81
2022/04/29 04:16:35;;;;;;;14.57;7.32;;;;;;;;;;5070175;28;20032;-81
2022/04/29 04:19:01;;;;;;;17.30;7.50;;;;;;;;;;5076128;28;20053;-81
2022/04/29 04:21:27;;;;;;;16.70;7.60;;;;;;;;;;5079127;28;20514;-81
2022/04/29 04:23:53;;;;;;;16.40;7.85;;;;;;;;;;5055453;28;20040;-81
2022/04/29 04:26:20;;;;;;;21.35;8.02;;;;;;;;;;5069590;28;20084;-81
2022/04/29 04:28:46;;;;;;;15.82;7.45;;;;;;;;;;5078040;28;20463;-81
2022/04/29 04:31:12;;;;;;;14.75;7.03;;;;;;;;;;5060243;28;20040;-81
2022/04/29 04:33:38;;;;;;;15.57;7.53;;;;;;;;;;5067917;28;20113;-81
2022/04/29 04:36:05;;;;;;;13.80;7.38;;;;;;;;;;5069196;28;20044;-81
2022/04/29 04:38:31;;;;;;;15.27;7.05;;;;;;;;;;5073630;28;20075;-81
2022/04/29 04:40:58;;;;;;;16.02;6.60;;;;;;;;;;5081927;28;20536;-82
2022/04/29 04:43:24;;;;;;;16.38;7.22;;;;;;;;;;5073021;28;20996;-81
2022/04/29 04:45:51;;;;;;;15.60;7.15;;;;;;;;;;5084317;28;20036;-81
2022/04/29 04:48:18;;;;;;;15.60;7.40;;;;;;;;;;5053073;28;20090;-81
2022/04/29 04:50:44;;;;;;;15.30;7.50;;;;;;;;;;5079945;28;20044;-81
2022/04/29 04:53:10;;;;;;;14.65;7.50;;;;;;;;;;5066636;28;20040;-82
2022/04/29 04:55:40;;;;;;;15.10;6.57;;;;;;;;;;5062900;28;20105;-81
2022/04/29 04:58:08;;;;;;;14.20;6.85;;;;;;;;;;5056590;28;20037;-81
2022/04/29 05:00:34;;;;;;;13.90;6.72;;;;;;;;;;5071339;28;20605;-82
2022/04/29 05:03:00;;;;;;;13.32;6.80;;;;;;;;;;5074330;28;20032;-81
2022/04/29 05:05:26;;;;;;;12.95;6.60;;;;;;;;;;5074886;28;20369;-81
2022/04/29 05:07:52;;;;;;;13.32;6.50;;;;;;;;;;5081545;28;20043;-81
2022/04/29 05:10:18;;;;;;;14.70;6.80;;;;;;;;;;5072901;28;20577;-81
2022/04/29 05:12:46;;;;;;;15.20;7.20;;;;;;;;;;5068110;28;20174;-81
2022/04/29 05:15:14;;;;;;;13.90;6.90;;;;;;;;;;5055530;28;20104;-81
2022/04/29 05:17:40;;;;;;;16.15;7.15;;;;;;;;;;5062920;28;20043;-81
2022/04/29 05:20:07;;;;;;;14.57;6.40;;;;;;;;;;5080847;28;20051;-81
2022/04/29 05:22:33;;;;;;;14.48;7.07;;;;;;;;;;5074788;28;20050;-81
2022/04/29 05:24:59;;;;;;;15.13;7.20;;;;;;;;;;5077982;28;20512;-81
2022/04/29 05:27:25;;;;;;;14.45;6.53;;;;;;;;;;5073498;28;20365;-81
2022/04/29 05:29:51;;;;;;;15.40;7.45;;;;;;;;;;5083707;28;20052;-81
2022/04/29 05:32:18;;;;;;;13.65;7.03;;;;;;;;;;5078823;28;20072;-81
2022/04/29 05:34:45;;;;;;;15.80;6.90;;;;;;;;;;5080239;28;20102;-81
2022/04/29 05:37:11;;;;;;;9.70;6.30;;;;;;;;;;5056249;28;20071;-81
2022/04/29 05:42:23;;;;;;;11.93;6.50;;;;;;;;;;5075821;28;20400;-81
2022/04/29 05:44:49;;;;;;;17.00;7.28;;;;;;;;;;5079161;28;20075;-81
2022/04/29 05:47:16;;;;;;;13.35;6.57;;;;;;;;;;5053296;28;20037;-81
2022/04/29 05:49:42;;;;;;;13.00;7.75;;;;;;;;;;5082524;28;20472;-81
2022/04/29 05:52:09;;;;;;;15.82;7.10;;;;;;;;;;5070923;28;20048;-81
2022/04/29 05:54:35;;;;;;;14.27;6.30;;;;;;;;;;5080727;28;20036;-81
2022/04/29 05:57:02;;;;;;;15.07;6.75;;;;;;;;;;5098644;28;20157;-81
2022/04/29 05:59:28;;;;;;;12.60;6.13;;;;;;;;;;5068747;28;20060;-81
2022/04/29 06:01:55;;;;;;;13.20;6.95;;;;;;;;;;5085318;28;20044;-81
2022/04/29 06:04:21;;;;;;;14.55;6.15;;;;;;;;;;5078694;28;20132;-81
2022/04/29 06:06:47;;;;;;;12.70;6.40;;;;;;;;;;5073950;28;21269;-81
2022/04/29 06:09:13;;;;;;;12.23;6.90;;;;;;;;;;5069995;28;20152;-81
2022/04/29 06:11:40;;;;;;;14.30;6.50;;;;;;;;;;5081053;28;20442;-81
2022/04/29 06:14:06;;;;;;;11.40;5.95;;;;;;;;;;5076529;28;20123;-82
2022/04/29 06:16:32;;;;;;;10.90;6.55;;;;;;;;;;5077147;28;20040;-82
2022/04/29 06:18:58;;;;;;;10.65;6.07;;;;;;;;;;5053136;28;20467;-82
2022/04/29 06:21:24;;;;;;;11.55;6.68;;;;;;;;;;5068388;28;20136;-82
2022/04/29 06:23:50;;;;;;;9.82;6.35;;;;;;;;;;5078091;28;20040;-82
2022/04/29 06:26:16;;;;;;;13.70;6.10;;;;;;;;;;5074539;28;20097;-82
2022/04/29 06:28:42;;;;;;;12.43;5.57;;;;;;;;;;5073283;28;20040;-82
2022/04/29 06:31:08;;;;;;;12.30;5.47;;;;;;;;;;5068444;28;20044;-83
2022/04/29 06:33:35;;;;;;;10.68;5.53;;;;;;;;;;5083660;28;20059;-82
2022/04/29 06:36:01;;;;;;;14.32;7.07;;;;;;;;;;5074396;28;20089;-82
2022/04/29 06:38:27;;;;;;;13.15;6.05;;;;;;;;;;5073250;28;20497;-82
2022/04/29 06:40:55;;;;;;;15.98;6.40;;;;;;;;;;5070780;28;20178;-82
2022/04/29 06:43:22;;;;;;;11.00;6.03;;;;;;;;;;5071005;28;20119;-81
2022/04/29 06:45:48;;;;;;;10.70;6.50;;;;;;;;;;5058932;28;20037;-81
2022/04/29 06:48:14;;;;;;;12.73;5.97;;;;;;;;;;5056705;28;20513;-81
2022/04/29 06:50:41;;;;;;;11.05;6.18;;;;;;;;;;5072292;28;20503;-81
2022/04/29 06:53:07;;;;;;;11.20;6.03;;;;;;;;;;5080647;28;20036;-81
2022/04/29 06:55:37;;;;;;;13.35;5.90;;;;;;;;;;5067586;28;20047;-81
2022/04/29 06:58:03;;;;;;;15.93;5.68;;;;;;;;;;5072111;28;20036;-81
2022/04/29 07:00:30;;;;;;;12.15;5.75;;;;;;;;;;5075720;28;20036;-81
2022/04/29 07:03:02;;;;;;;12.15;5.45;;;;;;;;;;5067673;28;20124;-80
2022/04/29 07:05:31;;;;;;;10.63;5.47;;;;;;;;;;5073378;28;20059;-80
2022/04/29 07:07:57;;;;;;;10.48;5.20;;;;;;;;;;5076330;28;20046;-81
2022/04/29 07:10:23;;;;;;;10.27;4.88;;;;;;;;;;5074934;28;20038;-81
2022/04/29 07:12:50;;;;;;;10.63;5.07;;;;;;;;;;5052965;28;20492;-81
2022/04/29 07:15:16;;;;;;;11.75;4.68;;;;;;;;;;5058628;28;20472;-81
2022/04/29 07:17:43;;;;;;;11.80;5.00;;;;;;;;;;5065517;28;20040;-82
2022/04/29 07:20:10;;;;;;;10.07;4.93;;;;;;;;;;5067015;28;20462;-81
2022/04/29 07:22:38;;;;;;;16.25;6.00;;;;;;;;;;5070267;28;20094;-82
2022/04/29 07:25:05;;;;;;;8.40;5.18;;;;;;;;;;5070056;28;20119;-81
2022/04/29 07:27:32;;;;;;;89.20;7.32;;;;;;;;;;5047969;28;20139;-82
2022/04/29 07:29:58;;;;;;;12.85;4.50;;;;;;;;;;5064720;28;20386;-82
2022/04/29 07:32:25;;;;;;;10.63;5.20;;;;;;;;;;5072054;28;20032;-82
2022/04/29 07:43:06;;;;;;;11.73;4.43;;;;;;;;;;5078559;28;20071;-83
2022/04/29 07:45:35;;;;;;;12.77;4.47;;;;;;;;;;5085391;28;20480;-81
2022/04/29 07:48:01;;;;;;;8.70;4.50;;;;;;;;;;5075688;28;20542;-82
2022/04/29 07:50:29;;;;;;;9.10;4.07;;;;;;;;;;5049724;28;20040;-83
2022/04/29 07:52:56;;;;;;;10.18;4.32;;;;;;;;;;5067176;28;20123;-82
2022/04/29 07:55:22;;;;;;;9.07;4.00;;;;;;;;;;5074896;28;20041;-83
2022/04/29 07:57:48;;;;;;;9.50;4.07;;;;;;;;;;5053429;28;20043;-79
2022/04/29 08:00:15;;;;;;;7.35;4.30;;;;;;;;;;5086771;28;20551;-80
2022/04/29 08:02:41;;;;;;;5.63;4.15;;;;;;;;;;5070648;28;20032;-81
2022/04/29 08:05:07;;;;;;;9.00;4.30;;;;;;;;;;5083981;28;20044;-80
2022/04/29 08:07:33;;;;;;;7.40;3.70;;;;;;;;;;5101959;28;20059;-81
2022/04/29 08:09:59;;;;;;;9.38;4.07;;;;;;;;;;5066658;28;20073;-82
2022/04/29 08:12:29;;;;;;;6.13;3.92;;;;;;;;;;5077916;28;20094;-81
2022/04/29 08:14:56;;;;;;;8.63;4.03;;;;;;;;;;5083476;28;20500;-81
2022/04/29 08:17:22;;;;;;;6.13;4.15;;;;;;;;;;5072246;28;20111;-82
2022/04/29 08:19:49;;;;;;;6.40;3.80;;;;;;;;;;5080463;28;20033;-81
2022/04/29 08:22:18;;;;;;;6.82;3.55;;;;;;;;;;5079699;28;20483;-81
2022/04/29 08:24:44;;;;;;;6.10;3.53;;;;;;;;;;5073464;28;20032;-80
2022/04/29 08:27:11;;;;;;;6.38;3.72;;;;;;;;;;5060237;28;20102;-80
2022/04/29 08:29:37;;;;;;;8.98;3.85;;;;;;;;;;5074557;28;20367;-80
2022/04/29 08:32:04;;;;;;;7.07;3.35;;;;;;;;;;5087621;28;20065;-81
2022/04/29 08:34:31;;;;;;;5.72;3.38;;;;;;;;;;5074158;28;20052;-80
2022/04/29 08:36:57;;;;;;;6.85;3.70;;;;;;;;;;5059272;28;20036;-81
2022/04/29 08:39:23;;;;;;;8.00;3.80;;;;;;;;;;5075631;28;20047;-80
2022/04/29 08:41:50;;;;;;;10.48;4.07;;;;;;;;;;5076543;28;20044;-80
2022/04/29 08:44:19;;;;;;;7.68;3.72;;;;;;;;;;5055099;28;20063;-80
2022/04/29 08:46:45;;;;;;;6.35;3.55;;;;;;;;;;5062949;28;20119;-80
2022/04/29 08:49:11;;;;;;;6.43;3.20;;;;;;;;;;5071705;28;20457;-81
2022/04/29 08:51:41;;;;;;;6.93;3.40;;;;;;;;;;5052091;28;20036;-81
2022/04/29 08:54:07;;;;;;;6.53;3.30;;;;;;;;;;5074301;28;20071;-80
2022/04/29 08:59:21;;;;;;;14.52;3.53;;;;;;;;;;5093907;28;20048;-81
2022/04/29 09:01:47;;;;;;;12.90;4.00;;;;;;;;;;5071508;28;20039;-81
2022/04/29 09:04:13;;;;;;;9.25;4.00;;;;;;;;;;5055571;28;20072;-79
2022/04/29 09:06:49;;;;;;;8.50;4.13;;;;;;;;;;5088037;28;20141;-79
2022/04/29 09:09:15;;;;;;;;;;;;;;;;;;5085383;28;20131;-78
2022/04/29 09:11:41;;;;;;;6.28;3.60;;;;;;;;;;5069494;28;20011;-78
2022/04/29 09:14:20;;;;;;;6.95;3.78;;;;;;;;;;5077390;28;20072;-78
2022/04/29 09:16:48;;;;;;;5.80;3.10;;;;;;;;;;5070539;28;20085;-78
2022/04/29 09:19:30;;;;;;;6.28;3.22;;;;;;;;;;5090466;28;20455;-78
2022/04/29 09:22:07;;;;;;;9.55;3.42;;;;;;;;;;5078124;28;20045;-78
2022/04/29 09:24:33;;;;;;;6.93;3.38;;;;;;;;;;5077502;28;20074;-78
2022/04/29 09:27:00;;;;;;;5.82;3.53;;;;;;;;;;5076199;28;20041;-79
2022/04/29 09:29:26;;;;;;;8.00;3.70;;;;;;;;;;5086169;28;20072;-78
2022/04/29 09:31:53;;;;;;;5.28;3.58;;;;;;;;;;5071482;28;20053;-78
2022/04/29 09:34:20;;;;;;;5.00;3.35;;;;;;;;;;5080337;28;20094;-78
2022/04/29 09:36:46;;;;;;;9.85;3.67;;;;;;;;;;5069607;28;20040;-79
2022/04/29 09:39:27;;;;;;;5.63;3.50;;;;;;;;;;5077402;28;20033;-78
2022/04/29 09:41:55;;;;;;;6.68;3.47;;;;;;;;;;5069689;28;20036;-78
2022/04/29 09:44:27;;;;;;;5.80;3.42;;;;;;;;;;5069553;28;20161;-79
2022/04/29 09:46:53;;;;;;;13.57;4.03;;;;;;;;;;5074932;28;20036;-78
2022/04/29 09:49:21;;;;;;;6.85;3.45;;;;;;;;;;5086654;28;20463;-78
2022/04/29 09:51:51;;;;;;;10.27;3.58;;;;;;;;;;5067388;28;20055;-78
2022/04/29 09:54:24;;;;;;;8.05;3.60;;;;;;;;;;5082799;28;20089;-78
2022/04/29 09:57:09;;;;;;;8.32;3.40;;;;;;;;;;5089265;28;20406;-78
2022/04/29 09:59:54;;;;;;;8.20;2.90;;;;;;;;;;5062341;28;20032;-79
2022/04/29 10:02:25;;;;;;;5.78;3.35;;;;;;;;;;5067584;28;20063;-79
2022/04/29 10:04:51;;;;;;;6.13;3.45;;;;;;;;;;5069209;28;20109;-79
2022/04/29 10:07:22;;;;;;;5.70;3.20;;;;;;;;;;5083520;28;20047;-79
2022/04/29 10:09:49;;;;;;;8.75;3.55;;;;;;;;;;5068389;28;20036;-79
2022/04/29 10:12:16;;;;;;;5.72;3.20;;;;;;;;;;5073941;28;20056;-79
2022/04/29 10:14:43;;;;;;;7.13;2.75;;;;;;;;;;5086756;28;20479;-79
2022/04/29 10:22:41;;;;;;;7.53;3.13;;;;;;;;;;5088286;28;20048;-79
2022/04/29 10:25:11;;;;;;;8.40;3.28;;;;;;;;;;5074067;28;20064;-76
2022/04/29 10:27:40;;;;;;;6.25;3.17;;;;;;;;;;5068041;28;20043;-75
2022/04/29 10:30:07;;;;;;;7.70;3.15;;;;;;;;;;5068186;28;20059;-75
2022/04/29 10:32:52;;;;;;;6.10;3.15;;;;;;;;;;5067153;28;20387;-75
2022/04/29 10:35:37;;;;;;;6.40;3.20;;;;;;;;;;5070844;28;20086;-76
2022/04/29 10:38:12;;;;;;;27.17;4.30;;;;;;;;;;5068084;28;20458;-76
2022/04/29 10:40:38;;;;;;;12.30;3.93;;;;;;;;;;5068304;28;20047;-76
2022/04/29 10:43:09;;;;;;;13.57;3.50;;;;;;;;;;5067025;28;20292;-76
2022/04/29 10:45:35;;;;;;;10.45;3.60;;;;;;;;;;5054610;28;20032;-76
2022/04/29 10:48:20;;;;;;;8.90;3.20;;;;;;;;;;5055435;28;20040;-76
2022/04/29 10:50:46;;;;;;;9.07;3.42;;;;;;;;;;5067146;28;20043;-77
2022/04/29 10:53:12;;;;;;;12.00;3.55;;;;;;;;;;5067854;28;20110;-77
2022/04/29 10:55:38;;;;;;;1230.28;71.53;;;;;;;;;;5056558;28;20054;-78
2022/04/29 10:58:08;;;;;;;228.57;14.07;;;;;;;;;;5068480;28;20040;-78
2022/04/29 11:00:34;;;;;;;13.63;4.15;;;;;;;;;;5066492;28;20362;-78
2022/04/29 11:03:19;;;;;;;16.52;4.40;;;;;;;;;;5058979;28;20422;-78
2022/04/29 11:05:45;;;;;;;8.88;4.28;;;;;;;;;;5067424;28;20051;-77
2022/04/29 11:08:11;;;;;;;8.35;4.00;;;;;;;;;;5082091;28;20177;-78
2022/04/29 11:10:54;;;;;;;8.32;3.25;;;;;;;;;;5056265;28;20040;-78
2022/04/29 11:13:23;;;;;;;7.85;3.60;;;;;;;;;;5068779;28;20420;-78
2022/04/29 11:15:51;;;;;;;7.82;3.75;;;;;;;;;;5069468;28;20043;-79
2022/04/29 11:18:25;;;;;;;8.25;3.75;;;;;;;;;;5086216;28;20138;-79
2022/04/29 11:20:56;;;;;;;10.32;4.05;;;;;;;;;;5063665;28;20089;-78
2022/04/29 11:26:21;;;;;;;6.82;3.78;;;;;;;;;;5067801;28;20393;-79
2022/04/29 11:28:54;;;;;;;9.95;3.55;;;;;;;;;;5050745;28;20036;-78
2022/04/29 11:31:20;;;;;;;9.75;3.78;;;;;;;;;;5050207;28;20048;-78
2022/04/29 11:33:46;;;;;;;11.57;4.20;;;;;;;;;;5078187;28;20067;-78
2022/04/29 11:36:14;;;;;;;5.95;3.65;;;;;;;;;;5037620;28;20498;-78
2022/04/29 11:38:41;;;;;;;8.77;3.53;;;;;;;;;;5066980;28;20107;-79
2022/04/29 11:41:07;;;;;;;6.80;3.65;;;;;;;;;;5066730;28;20053;-78
2022/04/29 11:43:33;;;;;;;9.13;3.60;;;;;;;;;;5066772;28;20047;-78
2022/04/29 11:46:05;;;;;;;7.97;3.83;;;;;;;;;;5068547;28;20492;-78
2022/04/29 11:48:33;;;;;;;8.48;3.72;;;;;;;;;;5058804;28;20043;-78
2022/04/29 11:50:59;;;;;;;7.20;3.67;;;;;;;;;;5069022;28;20133;-79
2022/04/29 11:53:25;;;;;;;6.50;3.63;;;;;;;;;;5068596;28;20040;-78
2022/04/29 11:55:52;;;;;;;9.68;3.67;;;;;;;;;;5071420;28;20064;-79
2022/04/29 11:58:18;;;;;;;6.38;3.70;;;;;;;;;;5056904;28;20134;-78
2022/04/29 12:00:51;;;;;;;15.43;3.88;;;;;;;;;;5060113;28;20119;-77
2022/04/29 12:03:20;;;;;;;8.98;3.80;;;;;;;;;;5066989;28;20043;-78
2022/04/29 12:05:47;;;;;;;8.45;4.03;;;;;;;;;;5069260;28;20392;-78
2022/04/29 12:08:13;;;;;;;6.55;3.80;;;;;;;;;;5067160;28;20068;-78
2022/04/29 12:10:42;;;;;;;8.13;4.13;;;;;;;;;;5076053;28;20055;-78
2022/04/29 12:13:08;;;;;;;8.65;4.35;;;;;;;;;;5070461;28;20040;-78
2022/04/29 12:15:35;;;;;;;7.88;4.20;;;;;;;;;;5064928;28;20040;-78
2022/04/29 12:18:09;;;;;;;15.52;4.68;;;;;;;;;;5052620;28;20040;-78
2022/04/29 12:20:37;;;;;;;5.90;4.20;;;;;;;;;;5072741;28;20484;-79
2022/04/29 12:23:22;;;;;;;8.75;4.28;;;;;;;;;;5079671;28;20097;-79
2022/04/29 12:25:48;;;;;;;11.73;4.57;;;;;;;;;;5068185;28;20126;-79
2022/04/29 12:28:22;;;;;;;8.05;4.75;;;;;;;;;;5085632;28;20040;-78
2022/04/29 12:36:48;;;;;;;8.63;4.38;;;;;;;;;;5070005;28;20036;-79
2022/04/29 12:39:15;;;;;;;6.25;4.15;;;;;;;;;;5072837;28;20260;-79
2022/04/29 12:41:42;;;;;;;6.78;3.67;;;;;;;;;;5083029;28;20040;-79
2022/04/29 12:45:03;;;;;;;8.80;4.63;;;;;;;;;;5084281;28;20374;-79
2022/04/29 12:47:02;;;;;;;6.50;4.15;;;;;;;;;;5075369;28;20104;-79
2022/04/29 12:49:28;;;;;;;7.80;4.20;;;;;;;;;;5088220;28;20051;-79
2022/04/29 12:52:01;;;;;;;7.10;4.28;;;;;;;;;;5083363;28;20070;-79
2022/04/29 12:54:27;;;;;;;10.77;4.00;;;;;;;;;;5077497;28;20040;-79
2022/04/29 12:56:54;;;;;;;8.77;4.28;;;;;;;;;;5070188;28;20481;-79
2022/04/29 12:59:24;;;;;;;7.32;4.10;;;;;;;;;;5069671;28;20048;-78
2022/04/29 13:01:50;;;;;;;7.13;4.10;;;;;;;;;;5069625;28;20119;-78
2022/04/29 13:04:16;;;;;;;7.13;4.20;;;;;;;;;;5054994;28;20047;-78
2022/04/29 13:06:42;;;;;;;7.50;4.15;;;;;;;;;;5074262;28;20037;-78
2022/04/29 13:09:08;;;;;;;6.88;3.78;;;;;;;;;;5070378;28;20045;-79
2022/04/29 13:11:34;;;;;;;6.30;4.25;;;;;;;;;;5069586;28;20037;-79
2022/04/29 13:14:00;;;;;;;8.25;4.40;;;;;;;;;;5082249;28;20562;-79
2022/04/29 13:16:26;;;;;;;7.03;3.83;;;;;;;;;;5074759;28;20119;-79
2022/04/29 13:18:55;;;;;;;6.65;3.95;;;;;;;;;;5067872;28;20535;-79
2022/04/29 13:21:22;;;;;;;7.60;4.10;;;;;;;;;;5083714;28;20043;-79
2022/04/29 13:23:48;;;;;;;8.23;4.40;;;;;;;;;;5070072;28;20048;-78
2022/04/29 13:26:15;;;;;;;7.25;4.32;;;;;;;;;;5052805;28;20462;-79
2022/04/29 13:28:42;;;;;;;7.70;4.45;;;;;;;;;;5072877;28;20131;-78
2022/04/29 13:31:09;;;;;;;7.53;4.05;;;;;;;;;;5077143;28;20563;-78
2022/04/29 13:33:35;;;;;;;5.68;4.47;;;;;;;;;;5069217;28;20049;-79
2022/04/29 13:36:03;;;;;;;6.65;4.18;;;;;;;;;;5056626;28;20051;-78
2022/04/29 13:38:29;;;;;;;8.95;4.22;;;;;;;;;;5067635;28;20123;-78
2022/04/29 13:40:55;;;;;;;8.02;4.07;;;;;;;;;;5071523;28;20046;-79
2022/04/29 13:43:21;;;;;;;7.88;3.72;;;;;;;;;;5057724;28;20048;-78
2022/04/29 13:45:48;;;;;;;6.90;3.28;;;;;;;;;;5081157;28;20541;-82
2022/04/29 13:48:16;;;;;;;6.13;3.40;;;;;;;;;;5069373;28;20036;-82
2022/04/29 13:50:43;;;;;;;15.80;3.63;;;;;;;;;;5071138;28;20044;-83
2022/04/29 13:53:11;;;;;;;5.38;3.35;;;;;;;;;;5064667;28;20040;-82
2022/04/29 13:55:51;;;;;;;7.07;3.40;;;;;;;;;;5072240;28;20391;-81
2022/04/29 13:58:25;;;;;;;6.75;3.10;;;;;;;;;;5077006;28;20037;-82
2022/04/29 14:00:52;;;;;;;8.60;3.50;;;;;;;;;;5078615;28;20369;-81
2022/04/29 14:03:19;;;;;;;8.40;3.40;;;;;;;;;;5069080;28;20043;-82
2022/04/29 14:05:46;;;;;;;6.82;3.40;;;;;;;;;;5083373;28;20036;-82
2022/04/29 14:08:12;;;;;;;8.23;3.70;;;;;;;;;;5071908;28;20048;-81
2022/04/29 14:10:38;;;;;;;20.17;3.97;;;;;;;;;;5068730;28;20055;-82
2022/04/29 14:13:10;;;;;;;10.02;3.22;;;;;;;;;;5070070;28;20060;-83
2022/04/29 14:15:39;;;;;;;7.07;3.15;;;;;;;;;;5068194;28;20074;-84
2022/04/29 14:18:07;;;;;;;12.40;3.95;;;;;;;;;;5068649;28;20083;-82
2022/04/29 14:20:33;;;;;;;5.75;2.88;;;;;;;;;;5077667;28;20507;-81
2022/04/29 14:22:59;;;;;;;7.28;3.15;;;;;;;;;;5052059;28;20044;-82
2022/04/29 14:25:26;;;;;;;6.63;3.10;;;;;;;;;;5083561;28;20491;-82
2022/04/29 14:27:52;;;;;;;8.35;3.30;;;;;;;;;;5051901;28;20051;-82
2022/04/29 14:30:18;;;;;;;7.63;3.38;;;;;;;;;;5072624;28;20037;-82
2022/04/29 14:32:45;;;;;;;7.68;3.13;;;;;;;;;;5058940;28;20040;-83
2022/04/29 14:35:11;;;;;;;5.75;2.70;;;;;;;;;;5080678;28;20058;-81
2022/04/29 14:37:38;;;;;;;7.60;3.00;;;;;;;;;;5081603;28;20101;-81
2022/04/29 14:40:09;;;;;;;6.68;3.08;;;;;;;;;;5083832;28;20074;-82
2022/04/29 14:42:35;;;;;;;6.20;3.28;;;;;;;;;;5078183;28;20036;-82
2022/04/29 14:45:02;;;;;;;5.72;2.83;;;;;;;;;;5086081;28;20055;-81
2022/04/29 14:47:29;;;;;;;5.90;3.03;;;;;;;;;;5069569;28;20041;-81
2022/04/29 14:49:55;;;;;;;7.05;3.20;;;;;;;;;;5067812;28;20044;-83
2022/04/29 14:52:21;;;;;;;6.47;3.20;;;;;;;;;;5053660;28;20043;-81
2022/04/29 14:54:48;;;;;;;6.60;3.22;;;;;;;;;;5050948;28;20502;-81
2022/04/29 14:57:14;;;;;;;5.68;3.38;;;;;;;;;;5075383;28;20036;-83
2022/04/29 14:59:40;;;;;;;4.57;3.08;;;;;;;;;;5067324;28;20093;-82
2022/04/29 15:02:06;;;;;;;5.47;3.10;;;;;;;;;;5051383;28;20504;-81
2022/04/29 15:04:33;;;;;;;7.43;2.78;;;;;;;;;;5073454;28;20507;-83
2022/04/29 15:06:59;;;;;;;6.43;3.08;;;;;;;;;;5069807;28;20138;-81
2022/04/29 15:17:40;;;;;;;7.68;3.30;;;;;;;;;;5077263;28;20040;-80
2022/04/29 15:20:07;;;;;;;6.50;3.17;;;;;;;;;;5067149;28;20048;-81